Estación Meteorológica Peña el Pijo (Robertgarden) [ 02/03/23 03:42:57 CET ]

Fecha Hora Presion(HPa) Temp (°C) Humedad % Rocio (°C) Viento ( m/s) Direccion Lluvia 1Hora(mm) Lluvia 24H(mm) LLuvia Total(mm)
2012-Dec-07 01:01:15 1008.500 0.9 80 -2.2         178.19
2012-Dec-07 02:03:11 1008.200 1.8 80 -1.3         178.19
2012-Dec-07 03:01:17 1007.600 1.6 83 -1.0         178.19
2012-Dec-07 04:01:14 1007.200 3.5 83 0.9         178.19
2012-Dec-07 05:01:16 1006.800 3.6 82 0.8         178.19
2012-Dec-07 06:01:11 1006.500 4.8 83 2.1         178.19
2012-Dec-07 07:01:17 1006.700 4.9 83 2.2         178.19
2012-Dec-07 08:01:15 1006.900 4.9 83 2.2         178.19
2012-Dec-07 09:01:14 1007.100 4.9 85 2.5         178.19
2012-Dec-07 10:01:13 1006.900 5.9 87 3.9         178.19
2012-Dec-07 11:01:14 1006.700 9.6 79 6.1         178.19
2012-Dec-07 12:01:14 1006.700 11.3 70 6.1         178.19
2012-Dec-07 13:01:14 1005.900 11.9 69 6.4         178.19
2012-Dec-07 14:01:19 1005.400 11.3 73 6.6         178.19
2012-Dec-07 15:01:14 1004.700 11.0 76 6.9         178.19
2012-Dec-07 16:01:15 1004.800 10.3 81 7.2         178.19
2012-Dec-07 17:01:16 1004.600 9.5 80 6.2         178.19
2012-Dec-07 18:01:18 1005.100 8.3 82 5.4         178.19
2012-Dec-07 19:01:17 1005.800 7.4 86 5.2         178.19
2012-Dec-07 20:01:15 1006.300 7.6 86 5.4         178.19
2012-Dec-07 21:01:14 1006.800 7.8 82 5.0         178.19
2012-Dec-07 22:01:14 1007.300 7.8 81 4.8         178.19
2012-Dec-07 23:01:19 1007.600 7.6 83 4.9         178.19

Temperatura Máxima:11°    Temperatura Mínima:
Presión Máxima:1008.500 Hpa    Presión Mínima:1004.600 Hpa


Volver